sensor_id;sensor_type;location;lat;lon;timestamp;P1;durP1;ratioP1;P2;durP2;ratioP2
23617;SDS011;18207;32.078;34.818;2023-06-14T00:02:12;1.95;;;1.20;;
23617;SDS011;18207;32.078;34.818;2023-06-14T00:04:44;1.48;;;1.30;;
23617;SDS011;18207;32.078;34.818;2023-06-14T00:07:15;1.40;;;1.30;;
23617;SDS011;18207;32.078;34.818;2023-06-14T00:09:45;1.20;;;1.13;;
23617;SDS011;18207;32.078;34.818;2023-06-14T00:12:15;1.42;;;1.35;;
23617;SDS011;18207;32.078;34.818;2023-06-14T00:14:46;1.42;;;1.33;;
23617;SDS011;18207;32.078;34.818;2023-06-14T00:17:16;1.13;;;1.13;;
23617;SDS011;18207;32.078;34.818;2023-06-14T00:19:48;1.40;;;1.30;;
23617;SDS011;18207;32.078;34.818;2023-06-14T00:22:17;1.85;;;1.50;;
23617;SDS011;18207;32.078;34.818;2023-06-14T00:24:48;1.23;;;1.10;;
23617;SDS011;18207;32.078;34.818;2023-06-14T00:27:21;1.35;;;1.25;;
23617;SDS011;18207;32.078;34.818;2023-06-14T00:29:51;1.50;;;1.40;;
23617;SDS011;18207;32.078;34.818;2023-06-14T00:32:21;1.45;;;1.35;;
23617;SDS011;18207;32.078;34.818;2023-06-14T00:34:54;1.10;;;1.05;;
23617;SDS011;18207;32.078;34.818;2023-06-14T00:37:24;1.05;;;1.00;;
23617;SDS011;18207;32.078;34.818;2023-06-14T00:39:54;1.42;;;1.33;;
23617;SDS011;18207;32.078;34.818;2023-06-14T00:42:25;1.52;;;1.42;;
23617;SDS011;18207;32.078;34.818;2023-06-14T00:44:57;1.35;;;1.27;;
23617;SDS011;18207;32.078;34.818;2023-06-14T00:47:26;1.50;;;1.40;;
23617;SDS011;18207;32.078;34.818;2023-06-14T00:49:58;1.50;;;1.40;;
23617;SDS011;18207;32.078;34.818;2023-06-14T00:52:30;1.50;;;1.40;;
23617;SDS011;18207;32.078;34.818;2023-06-14T00:55:01;1.42;;;1.33;;
23617;SDS011;18207;32.078;34.818;2023-06-14T00:57:32;1.40;;;1.30;;
23617;SDS011;18207;32.078;34.818;2023-06-14T01:00:05;2.10;;;1.60;;
23617;SDS011;18207;32.078;34.818;2023-06-14T01:02:38;2.55;;;1.50;;
23617;SDS011;18207;32.078;34.818;2023-06-14T01:05:09;1.75;;;1.65;;
23617;SDS011;18207;32.078;34.818;2023-06-14T01:07:43;1.58;;;1.48;;
23617;SDS011;18207;32.078;34.818;2023-06-14T01:10:35;1.35;;;1.30;;
23617;SDS011;18207;32.078;34.818;2023-06-14T01:13:20;1.70;;;1.60;;
23617;SDS011;18207;32.078;34.818;2023-06-14T01:15:56;1.45;;;1.35;;
23617;SDS011;18207;32.078;34.818;2023-06-14T01:18:27;1.60;;;1.50;;
23617;SDS011;18207;32.078;34.818;2023-06-14T01:21:01;1.73;;;1.60;;
23617;SDS011;18207;32.078;34.818;2023-06-14T01:23:34;1.73;;;1.63;;
23617;SDS011;18207;32.078;34.818;2023-06-14T01:26:04;2.03;;;1.63;;
23617;SDS011;18207;32.078;34.818;2023-06-14T01:28:34;1.83;;;1.70;;
23617;SDS011;18207;32.078;34.818;2023-06-14T01:31:05;2.13;;;1.75;;
23617;SDS011;18207;32.078;34.818;2023-06-14T01:33:39;1.73;;;1.63;;
23617;SDS011;18207;32.078;34.818;2023-06-14T01:36:09;1.73;;;1.63;;
23617;SDS011;18207;32.078;34.818;2023-06-14T01:38:43;1.70;;;1.60;;
23617;SDS011;18207;32.078;34.818;2023-06-14T01:41:15;1.60;;;1.50;;
23617;SDS011;18207;32.078;34.818;2023-06-14T01:43:47;2.35;;;1.70;;
23617;SDS011;18207;32.078;34.818;2023-06-14T01:46:20;1.67;;;1.58;;
23617;SDS011;18207;32.078;34.818;2023-06-14T01:48:51;1.55;;;1.45;;
23617;SDS011;18207;32.078;34.818;2023-06-14T01:51:22;1.55;;;1.45;;
23617;SDS011;18207;32.078;34.818;2023-06-14T01:53:53;1.55;;;1.45;;
23617;SDS011;18207;32.078;34.818;2023-06-14T01:56:24;1.77;;;1.60;;
23617;SDS011;18207;32.078;34.818;2023-06-14T01:58:55;1.95;;;1.60;;
23617;SDS011;18207;32.078;34.818;2023-06-14T02:01:25;1.52;;;1.45;;
23617;SDS011;18207;32.078;34.818;2023-06-14T02:03:55;1.98;;;1.80;;
23617;SDS011;18207;32.078;34.818;2023-06-14T02:06:26;1.90;;;1.60;;
23617;SDS011;18207;32.078;34.818;2023-06-14T02:08:58;2.15;;;1.63;;
23617;SDS011;18207;32.078;34.818;2023-06-14T02:11:30;1.50;;;1.40;;
23617;SDS011;18207;32.078;34.818;2023-06-14T02:14:00;1.67;;;1.40;;
23617;SDS011;18207;32.078;34.818;2023-06-14T02:16:30;1.88;;;1.67;;
23617;SDS011;18207;32.078;34.818;2023-06-14T02:19:02;1.65;;;1.48;;
23617;SDS011;18207;32.078;34.818;2023-06-14T02:21:33;1.73;;;1.63;;
23617;SDS011;18207;32.078;34.818;2023-06-14T02:24:06;1.70;;;1.60;;
23617;SDS011;18207;32.078;34.818;2023-06-14T02:26:37;1.70;;;1.52;;
23617;SDS011;18207;32.078;34.818;2023-06-14T02:29:08;1.45;;;1.35;;
23617;SDS011;18207;32.078;34.818;2023-06-14T02:31:41;1.75;;;1.65;;
23617;SDS011;18207;32.078;34.818;2023-06-14T02:34:14;2.05;;;1.60;;
23617;SDS011;18207;32.078;34.818;2023-06-14T02:36:46;1.90;;;1.80;;
23617;SDS011;18207;32.078;34.818;2023-06-14T02:39:19;1.70;;;1.60;;
23617;SDS011;18207;32.078;34.818;2023-06-14T02:41:50;2.22;;;1.65;;
23617;SDS011;18207;32.078;34.818;2023-06-14T02:44:23;1.70;;;1.60;;
23617;SDS011;18207;32.078;34.818;2023-06-14T02:46:55;3.05;;;1.80;;
23617;SDS011;18207;32.078;34.818;2023-06-14T02:49:25;1.52;;;1.42;;
23617;SDS011;18207;32.078;34.818;2023-06-14T02:51:56;1.67;;;1.58;;
23617;SDS011;18207;32.078;34.818;2023-06-14T02:54:28;1.73;;;1.63;;
23617;SDS011;18207;32.078;34.818;2023-06-14T02:56:59;2.22;;;1.70;;
23617;SDS011;18207;32.078;34.818;2023-06-14T02:59:29;1.70;;;1.60;;
23617;SDS011;18207;32.078;34.818;2023-06-14T03:01:59;1.98;;;1.67;;
23617;SDS011;18207;32.078;34.818;2023-06-14T03:04:29;1.70;;;1.60;;
23617;SDS011;18207;32.078;34.818;2023-06-14T03:07:02;1.88;;;1.60;;
23617;SDS011;18207;32.078;34.818;2023-06-14T03:09:39;1.60;;;1.50;;
23617;SDS011;18207;32.078;34.818;2023-06-14T03:12:09;1.80;;;1.58;;
23617;SDS011;18207;32.078;34.818;2023-06-14T03:14:40;2.17;;;1.70;;
23617;SDS011;18207;32.078;34.818;2023-06-14T03:17:12;1.70;;;1.60;;
23617;SDS011;18207;32.078;34.818;2023-06-14T03:19:44;1.80;;;1.55;;
23617;SDS011;18207;32.078;34.818;2023-06-14T03:22:14;1.70;;;1.60;;
23617;SDS011;18207;32.078;34.818;2023-06-14T03:24:46;1.85;;;1.60;;
23617;SDS011;18207;32.078;34.818;2023-06-14T03:27:17;1.60;;;1.50;;
23617;SDS011;18207;32.078;34.818;2023-06-14T03:29:47;2.17;;;1.98;;
23617;SDS011;18207;32.078;34.818;2023-06-14T03:32:20;1.73;;;1.63;;
23617;SDS011;18207;32.078;34.818;2023-06-14T03:34:51;1.55;;;1.45;;
23617;SDS011;18207;32.078;34.818;2023-06-14T03:37:22;1.88;;;1.60;;
23617;SDS011;18207;32.078;34.818;2023-06-14T03:39:54;1.77;;;1.55;;
23617;SDS011;18207;32.078;34.818;2023-06-14T03:42:25;1.90;;;1.75;;
23617;SDS011;18207;32.078;34.818;2023-06-14T03:44:55;1.80;;;1.70;;
23617;SDS011;18207;32.078;34.818;2023-06-14T03:47:25;1.90;;;1.63;;
23617;SDS011;18207;32.078;34.818;2023-06-14T03:49:55;1.83;;;1.60;;
23617;SDS011;18207;32.078;34.818;2023-06-14T03:52:26;1.73;;;1.63;;
23617;SDS011;18207;32.078;34.818;2023-06-14T03:54:58;1.83;;;1.65;;
23617;SDS011;18207;32.078;34.818;2023-06-14T03:57:30;1.50;;;1.40;;
23617;SDS011;18207;32.078;34.818;2023-06-14T04:00:00;1.70;;;1.60;;
23617;SDS011;18207;32.078;34.818;2023-06-14T04:02:33;1.70;;;1.60;;
23617;SDS011;18207;32.078;34.818;2023-06-14T04:05:03;1.70;;;1.60;;
23617;SDS011;18207;32.078;34.818;2023-06-14T04:07:35;2.40;;;1.55;;
23617;SDS011;18207;32.078;34.818;2023-06-14T04:10:09;1.50;;;1.40;;
23617;SDS011;18207;32.078;34.818;2023-06-14T04:12:40;1.73;;;1.63;;
23617;SDS011;18207;32.078;34.818;2023-06-14T04:15:11;2.13;;;1.38;;
23617;SDS011;18207;32.078;34.818;2023-06-14T04:17:47;1.80;;;1.70;;
23617;SDS011;18207;32.078;34.818;2023-06-14T04:20:18;4.10;;;1.85;;
23617;SDS011;18207;32.078;34.818;2023-06-14T04:22:48;1.60;;;1.50;;
23617;SDS011;18207;32.078;34.818;2023-06-14T04:25:21;1.83;;;1.63;;
23617;SDS011;18207;32.078;34.818;2023-06-14T04:27:55;2.50;;;1.92;;
23617;SDS011;18207;32.078;34.818;2023-06-14T04:30:25;1.73;;;1.48;;
23617;SDS011;18207;32.078;34.818;2023-06-14T04:32:58;1.85;;;1.75;;
23617;SDS011;18207;32.078;34.818;2023-06-14T04:35:32;1.73;;;1.63;;
23617;SDS011;18207;32.078;34.818;2023-06-14T04:38:04;1.77;;;1.67;;
23617;SDS011;18207;32.078;34.818;2023-06-14T04:40:38;1.83;;;1.73;;
23617;SDS011;18207;32.078;34.818;2023-06-14T04:43:09;1.67;;;1.58;;
23617;SDS011;18207;32.078;34.818;2023-06-14T04:45:45;1.83;;;1.73;;
23617;SDS011;18207;32.078;34.818;2023-06-14T04:48:16;1.70;;;1.60;;
23617;SDS011;18207;32.078;34.818;2023-06-14T04:50:47;2.28;;;1.80;;
23617;SDS011;18207;32.078;34.818;2023-06-14T04:53:20;2.33;;;1.83;;
23617;SDS011;18207;32.078;34.818;2023-06-14T04:55:53;1.98;;;1.88;;
23617;SDS011;18207;32.078;34.818;2023-06-14T04:58:23;1.90;;;1.80;;
23617;SDS011;18207;32.078;34.818;2023-06-14T05:00:54;2.47;;;2.10;;
23617;SDS011;18207;32.078;34.818;2023-06-14T05:03:26;2.45;;;2.25;;
23617;SDS011;18207;32.078;34.818;2023-06-14T05:05:57;2.22;;;2.08;;
23617;SDS011;18207;32.078;34.818;2023-06-14T05:08:27;2.70;;;2.50;;
23617;SDS011;18207;32.078;34.818;2023-06-14T05:10:59;2.90;;;2.70;;
23617;SDS011;18207;32.078;34.818;2023-06-14T05:13:29;2.80;;;2.65;;
23617;SDS011;18207;32.078;34.818;2023-06-14T05:15:59;3.33;;;3.13;;
23617;SDS011;18207;32.078;34.818;2023-06-14T05:18:30;3.13;;;2.92;;
23617;SDS011;18207;32.078;34.818;2023-06-14T05:21:03;2.90;;;2.70;;
23617;SDS011;18207;32.078;34.818;2023-06-14T05:23:33;3.10;;;2.90;;
23617;SDS011;18207;32.078;34.818;2023-06-14T05:26:04;3.35;;;3.03;;
23617;SDS011;18207;32.078;34.818;2023-06-14T05:28:35;3.30;;;3.10;;
23617;SDS011;18207;32.078;34.818;2023-06-14T05:31:05;3.40;;;3.20;;
23617;SDS011;18207;32.078;34.818;2023-06-14T05:33:35;3.33;;;3.15;;
23617;SDS011;18207;32.078;34.818;2023-06-14T05:36:06;3.35;;;3.15;;
23617;SDS011;18207;32.078;34.818;2023-06-14T05:38:36;3.35;;;3.15;;
23617;SDS011;18207;32.078;34.818;2023-06-14T05:41:08;3.33;;;3.13;;
23617;SDS011;18207;32.078;34.818;2023-06-14T05:43:39;3.38;;;3.17;;
23617;SDS011;18207;32.078;34.818;2023-06-14T05:46:09;3.20;;;3.00;;
23617;SDS011;18207;32.078;34.818;2023-06-14T05:48:40;3.40;;;3.13;;
23617;SDS011;18207;32.078;34.818;2023-06-14T05:51:10;3.28;;;3.08;;
23617;SDS011;18207;32.078;34.818;2023-06-14T05:53:40;3.20;;;3.00;;
23617;SDS011;18207;32.078;34.818;2023-06-14T05:56:13;3.28;;;3.08;;
23617;SDS011;18207;32.078;34.818;2023-06-14T05:58:44;2.95;;;2.75;;
23617;SDS011;18207;32.078;34.818;2023-06-14T06:01:15;3.20;;;3.00;;
23617;SDS011;18207;32.078;34.818;2023-06-14T06:03:45;2.90;;;2.70;;
23617;SDS011;18207;32.078;34.818;2023-06-14T06:06:15;3.05;;;2.85;;
23617;SDS011;18207;32.078;34.818;2023-06-14T06:08:46;3.00;;;2.80;;
23617;SDS011;18207;32.078;34.818;2023-06-14T06:11:19;3.03;;;2.83;;
23617;SDS011;18207;32.078;34.818;2023-06-14T06:13:49;2.95;;;2.75;;
23617;SDS011;18207;32.078;34.818;2023-06-14T06:16:19;3.10;;;2.90;;
23617;SDS011;18207;32.078;34.818;2023-06-14T06:18:49;2.97;;;2.78;;
23617;SDS011;18207;32.078;34.818;2023-06-14T06:21:20;3.17;;;2.97;;
23617;SDS011;18207;32.078;34.818;2023-06-14T06:23:50;3.30;;;3.10;;
23617;SDS011;18207;32.078;34.818;2023-06-14T06:26:23;3.15;;;2.95;;
23617;SDS011;18207;32.078;34.818;2023-06-14T06:28:53;3.30;;;3.15;;
23617;SDS011;18207;32.078;34.818;2023-06-14T06:31:24;3.53;;;3.33;;
23617;SDS011;18207;32.078;34.818;2023-06-14T06:33:55;3.70;;;3.50;;
23617;SDS011;18207;32.078;34.818;2023-06-14T06:36:25;3.55;;;3.35;;
23617;SDS011;18207;32.078;34.818;2023-06-14T06:38:55;3.25;;;3.05;;
23617;SDS011;18207;32.078;34.818;2023-06-14T06:41:27;3.47;;;3.20;;
23617;SDS011;18207;32.078;34.818;2023-06-14T06:43:58;3.35;;;3.15;;
23617;SDS011;18207;32.078;34.818;2023-06-14T06:46:28;3.08;;;2.88;;
23617;SDS011;18207;32.078;34.818;2023-06-14T06:48:58;3.63;;;3.42;;
23617;SDS011;18207;32.078;34.818;2023-06-14T06:51:29;3.47;;;3.28;;
23617;SDS011;18207;32.078;34.818;2023-06-14T06:53:58;3.28;;;3.08;;
23617;SDS011;18207;32.078;34.818;2023-06-14T06:56:31;3.20;;;3.00;;
23617;SDS011;18207;32.078;34.818;2023-06-14T06:59:01;3.20;;;3.00;;
23617;SDS011;18207;32.078;34.818;2023-06-14T07:01:31;3.15;;;2.95;;
23617;SDS011;18207;32.078;34.818;2023-06-14T07:04:03;3.60;;;3.40;;
23617;SDS011;18207;32.078;34.818;2023-06-14T07:06:33;3.40;;;3.20;;
23617;SDS011;18207;32.078;34.818;2023-06-14T07:09:04;3.25;;;3.05;;
23617;SDS011;18207;32.078;34.818;2023-06-14T07:11:41;3.22;;;3.03;;
23617;SDS011;18207;32.078;34.818;2023-06-14T07:14:12;3.30;;;3.10;;
23617;SDS011;18207;32.078;34.818;2023-06-14T07:16:42;3.50;;;3.30;;
23617;SDS011;18207;32.078;34.818;2023-06-14T07:19:13;3.33;;;3.13;;
23617;SDS011;18207;32.078;34.818;2023-06-14T07:21:44;3.50;;;3.30;;
23617;SDS011;18207;32.078;34.818;2023-06-14T07:24:14;3.63;;;3.35;;
23617;SDS011;18207;32.078;34.818;2023-06-14T07:26:46;3.70;;;3.50;;
23617;SDS011;18207;32.078;34.818;2023-06-14T07:29:17;3.33;;;3.13;;
23617;SDS011;18207;32.078;34.818;2023-06-14T07:31:48;3.42;;;3.22;;
23617;SDS011;18207;32.078;34.818;2023-06-14T07:34:18;3.83;;;3.53;;
23617;SDS011;18207;32.078;34.818;2023-06-14T07:36:48;3.40;;;3.20;;
23617;SDS011;18207;32.078;34.818;2023-06-14T07:39:18;3.17;;;3.03;;
23617;SDS011;18207;32.078;34.818;2023-06-14T07:41:50;3.70;;;3.50;;
23617;SDS011;18207;32.078;34.818;2023-06-14T07:44:20;3.50;;;3.30;;
23617;SDS011;18207;32.078;34.818;2023-06-14T07:46:51;3.47;;;3.28;;
23617;SDS011;18207;32.078;34.818;2023-06-14T07:49:21;3.67;;;3.47;;
23617;SDS011;18207;32.078;34.818;2023-06-14T07:51:51;3.67;;;3.47;;
23617;SDS011;18207;32.078;34.818;2023-06-14T07:54:21;3.58;;;3.38;;
23617;SDS011;18207;32.078;34.818;2023-06-14T07:56:55;3.50;;;3.30;;
23617;SDS011;18207;32.078;34.818;2023-06-14T07:59:27;3.40;;;3.20;;
23617;SDS011;18207;32.078;34.818;2023-06-14T08:01:58;3.53;;;3.30;;
23617;SDS011;18207;32.078;34.818;2023-06-14T08:04:27;3.40;;;3.20;;
23617;SDS011;18207;32.078;34.818;2023-06-14T08:06:57;3.17;;;2.97;;
23617;SDS011;18207;32.078;34.818;2023-06-14T08:09:29;2.88;;;2.75;;
23617;SDS011;18207;32.078;34.818;2023-06-14T08:12:02;2.70;;;2.60;;
23617;SDS011;18207;32.078;34.818;2023-06-14T08:14:34;2.80;;;2.70;;
23617;SDS011;18207;32.078;34.818;2023-06-14T08:17:05;2.50;;;2.40;;
23617;SDS011;18207;32.078;34.818;2023-06-14T08:19:35;2.78;;;2.58;;
23617;SDS011;18207;32.078;34.818;2023-06-14T08:22:05;2.45;;;2.35;;
23617;SDS011;18207;32.078;34.818;2023-06-14T08:24:39;2.50;;;2.40;;
23617;SDS011;18207;32.078;34.818;2023-06-14T08:27:11;2.60;;;2.50;;
23617;SDS011;18207;32.078;34.818;2023-06-14T08:29:41;2.58;;;2.40;;
23617;SDS011;18207;32.078;34.818;2023-06-14T08:32:12;2.40;;;2.30;;
23617;SDS011;18207;32.078;34.818;2023-06-14T08:34:42;2.53;;;2.33;;
23617;SDS011;18207;32.078;34.818;2023-06-14T08:37:30;2.40;;;2.30;;
23617;SDS011;18207;32.078;34.818;2023-06-14T08:40:00;2.30;;;2.20;;
23617;SDS011;18207;32.078;34.818;2023-06-14T08:42:34;2.40;;;2.25;;
23617;SDS011;18207;32.078;34.818;2023-06-14T08:45:06;2.28;;;2.10;;
23617;SDS011;18207;32.078;34.818;2023-06-14T08:47:37;2.10;;;2.00;;
23617;SDS011;18207;32.078;34.818;2023-06-14T08:50:09;2.00;;;1.90;;
23617;SDS011;18207;32.078;34.818;2023-06-14T08:52:54;2.10;;;2.00;;
23617;SDS011;18207;32.078;34.818;2023-06-14T08:55:27;1.98;;;1.83;;
23617;SDS011;18207;32.078;34.818;2023-06-14T08:58:05;2.10;;;2.00;;
23617;SDS011;18207;32.078;34.818;2023-06-14T09:00:36;1.80;;;1.70;;
23617;SDS011;18207;32.078;34.818;2023-06-14T09:03:08;1.90;;;1.80;;
23617;SDS011;18207;32.078;34.818;2023-06-14T09:05:40;1.80;;;1.70;;
23617;SDS011;18207;32.078;34.818;2023-06-14T09:08:13;1.75;;;1.65;;
23617;SDS011;18207;32.078;34.818;2023-06-14T09:10:46;1.75;;;1.65;;
23617;SDS011;18207;32.078;34.818;2023-06-14T09:13:18;1.60;;;1.60;;
23617;SDS011;18207;32.078;34.818;2023-06-14T09:15:48;1.45;;;1.45;;
23617;SDS011;18207;32.078;34.818;2023-06-14T09:18:19;1.40;;;1.40;;
23617;SDS011;18207;32.078;34.818;2023-06-14T09:20:49;1.38;;;1.35;;
23617;SDS011;18207;32.078;34.818;2023-06-14T09:23:20;1.42;;;1.33;;
23617;SDS011;18207;32.078;34.818;2023-06-14T09:25:50;1.60;;;1.50;;
23617;SDS011;18207;32.078;34.818;2023-06-14T09:28:27;1.30;;;1.30;;
23617;SDS011;18207;32.078;34.818;2023-06-14T09:30:57;1.60;;;1.50;;
23617;SDS011;18207;32.078;34.818;2023-06-14T09:33:28;1.45;;;1.38;;
23617;SDS011;18207;32.078;34.818;2023-06-14T09:36:01;1.50;;;1.40;;
23617;SDS011;18207;32.078;34.818;2023-06-14T09:38:34;1.40;;;1.40;;
23617;SDS011;18207;32.078;34.818;2023-06-14T09:41:04;1.40;;;1.40;;
23617;SDS011;18207;32.078;34.818;2023-06-14T09:43:36;1.10;;;1.10;;
23617;SDS011;18207;32.078;34.818;2023-06-14T09:46:07;1.30;;;1.30;;
23617;SDS011;18207;32.078;34.818;2023-06-14T09:48:38;1.27;;;1.27;;
23617;SDS011;18207;32.078;34.818;2023-06-14T09:51:10;1.30;;;1.30;;
23617;SDS011;18207;32.078;34.818;2023-06-14T09:53:47;1.50;;;1.50;;
23617;SDS011;18207;32.078;34.818;2023-06-14T09:56:21;1.60;;;1.50;;
23617;SDS011;18207;32.078;34.818;2023-06-14T09:58:58;1.23;;;1.23;;
23617;SDS011;18207;32.078;34.818;2023-06-14T10:01:34;1.20;;;1.20;;
23617;SDS011;18207;32.078;34.818;2023-06-14T10:04:11;1.38;;;1.33;;
23617;SDS011;18207;32.078;34.818;2023-06-14T10:06:48;1.02;;;1.00;;
23617;SDS011;18207;32.078;34.818;2023-06-14T10:09:22;1.48;;;1.20;;
23617;SDS011;18207;32.078;34.818;2023-06-14T10:11:52;1.35;;;1.27;;
23617;SDS011;18207;32.078;34.818;2023-06-14T10:14:25;1.23;;;1.23;;
23617;SDS011;18207;32.078;34.818;2023-06-14T10:17:00;1.25;;;1.25;;
23617;SDS011;18207;32.078;34.818;2023-06-14T10:19:39;1.23;;;1.13;;
23617;SDS011;18207;32.078;34.818;2023-06-14T10:22:22;1.35;;;1.30;;
23617;SDS011;18207;32.078;34.818;2023-06-14T10:25:01;1.20;;;1.20;;
23617;SDS011;18207;32.078;34.818;2023-06-14T10:27:38;1.05;;;1.05;;
23617;SDS011;18207;32.078;34.818;2023-06-14T10:30:16;1.20;;;1.20;;
23617;SDS011;18207;32.078;34.818;2023-06-14T10:33:04;1.10;;;1.10;;
23617;SDS011;18207;32.078;34.818;2023-06-14T10:35:37;1.00;;;1.00;;
23617;SDS011;18207;32.078;34.818;2023-06-14T10:38:08;0.80;;;0.80;;
23617;SDS011;18207;32.078;34.818;2023-06-14T10:40:41;1.15;;;1.00;;
23617;SDS011;18207;32.078;34.818;2023-06-14T10:43:20;1.23;;;1.15;;
23617;SDS011;18207;32.078;34.818;2023-06-14T10:48:56;0.88;;;0.88;;
23617;SDS011;18207;32.078;34.818;2023-06-14T10:51:30;1.17;;;1.17;;
23617;SDS011;18207;32.078;34.818;2023-06-14T10:54:13;1.17;;;1.10;;
23617;SDS011;18207;32.078;34.818;2023-06-14T10:56:45;1.10;;;1.10;;
23617;SDS011;18207;32.078;34.818;2023-06-14T10:59:18;1.00;;;1.00;;
23617;SDS011;18207;32.078;34.818;2023-06-14T11:01:53;1.35;;;1.25;;
23617;SDS011;18207;32.078;34.818;2023-06-14T11:04:49;1.20;;;1.20;;
23617;SDS011;18207;32.078;34.818;2023-06-14T11:07:30;1.17;;;1.17;;
23617;SDS011;18207;32.078;34.818;2023-06-14T11:10:35;0.90;;;0.90;;
23617;SDS011;18207;32.078;34.818;2023-06-14T11:13:07;0.90;;;0.90;;
23617;SDS011;18207;32.078;34.818;2023-06-14T11:15:38;0.98;;;0.98;;
23617;SDS011;18207;32.078;34.818;2023-06-14T11:18:16;1.05;;;1.05;;
23617;SDS011;18207;32.078;34.818;2023-06-14T11:20:46;1.00;;;1.00;;
23617;SDS011;18207;32.078;34.818;2023-06-14T11:23:16;1.10;;;1.10;;
23617;SDS011;18207;32.078;34.818;2023-06-14T11:25:49;0.93;;;0.93;;
23617;SDS011;18207;32.078;34.818;2023-06-14T11:28:21;0.80;;;0.80;;
23617;SDS011;18207;32.078;34.818;2023-06-14T11:30:59;0.73;;;0.73;;
23617;SDS011;18207;32.078;34.818;2023-06-14T11:33:31;1.00;;;1.00;;
23617;SDS011;18207;32.078;34.818;2023-06-14T11:36:02;0.93;;;0.93;;
23617;SDS011;18207;32.078;34.818;2023-06-14T11:38:35;1.02;;;1.02;;
23617;SDS011;18207;32.078;34.818;2023-06-14T11:41:07;0.75;;;0.75;;
23617;SDS011;18207;32.078;34.818;2023-06-14T11:43:39;1.02;;;1.02;;
23617;SDS011;18207;32.078;34.818;2023-06-14T11:46:13;0.90;;;0.90;;
23617;SDS011;18207;32.078;34.818;2023-06-14T11:48:47;0.90;;;0.90;;
23617;SDS011;18207;32.078;34.818;2023-06-14T11:51:18;0.90;;;0.90;;
23617;SDS011;18207;32.078;34.818;2023-06-14T11:53:48;1.02;;;1.02;;
23617;SDS011;18207;32.078;34.818;2023-06-14T11:56:19;0.93;;;0.93;;
23617;SDS011;18207;32.078;34.818;2023-06-14T11:58:50;0.82;;;0.82;;
23617;SDS011;18207;32.078;34.818;2023-06-14T12:01:23;0.95;;;0.95;;
23617;SDS011;18207;32.078;34.818;2023-06-14T12:03:56;1.00;;;1.00;;
23617;SDS011;18207;32.078;34.818;2023-06-14T12:06:28;1.08;;;1.08;;
23617;SDS011;18207;32.078;34.818;2023-06-14T12:09:03;1.08;;;1.08;;
23617;SDS011;18207;32.078;34.818;2023-06-14T12:11:40;1.00;;;1.00;;
23617;SDS011;18207;32.078;34.818;2023-06-14T12:14:11;1.02;;;1.02;;
23617;SDS011;18207;32.078;34.818;2023-06-14T12:16:41;1.30;;;1.20;;
23617;SDS011;18207;32.078;34.818;2023-06-14T12:19:13;0.98;;;0.98;;
23617;SDS011;18207;32.078;34.818;2023-06-14T12:21:46;1.00;;;1.00;;
23617;SDS011;18207;32.078;34.818;2023-06-14T12:24:18;0.90;;;0.90;;
23617;SDS011;18207;32.078;34.818;2023-06-14T12:26:48;1.02;;;1.02;;
23617;SDS011;18207;32.078;34.818;2023-06-14T12:29:21;1.10;;;1.00;;
23617;SDS011;18207;32.078;34.818;2023-06-14T12:31:51;1.10;;;1.10;;
23617;SDS011;18207;32.078;34.818;2023-06-14T12:34:25;1.00;;;1.00;;
23617;SDS011;18207;32.078;34.818;2023-06-14T12:36:57;0.98;;;0.98;;
23617;SDS011;18207;32.078;34.818;2023-06-14T12:39:28;0.88;;;0.88;;
23617;SDS011;18207;32.078;34.818;2023-06-14T12:41:58;1.00;;;1.00;;
23617;SDS011;18207;32.078;34.818;2023-06-14T12:44:30;0.88;;;0.88;;
23617;SDS011;18207;32.078;34.818;2023-06-14T12:47:07;1.08;;;1.08;;
23617;SDS011;18207;32.078;34.818;2023-06-14T12:49:39;0.80;;;0.80;;
23617;SDS011;18207;32.078;34.818;2023-06-14T12:52:10;0.98;;;0.85;;
23617;SDS011;18207;32.078;34.818;2023-06-14T12:54:40;0.90;;;0.90;;
23617;SDS011;18207;32.078;34.818;2023-06-14T12:57:10;1.13;;;1.13;;
23617;SDS011;18207;32.078;34.818;2023-06-14T12:59:40;0.85;;;0.85;;
23617;SDS011;18207;32.078;34.818;2023-06-14T13:02:12;0.88;;;0.88;;
23617;SDS011;18207;32.078;34.818;2023-06-14T13:04:44;1.05;;;1.05;;
23617;SDS011;18207;32.078;34.818;2023-06-14T13:07:14;0.88;;;0.88;;
23617;SDS011;18207;32.078;34.818;2023-06-14T13:09:45;1.42;;;1.33;;
23617;SDS011;18207;32.078;34.818;2023-06-14T13:12:15;1.33;;;1.23;;
23617;SDS011;18207;32.078;34.818;2023-06-14T13:14:46;1.30;;;1.20;;
23617;SDS011;18207;32.078;34.818;2023-06-14T13:17:16;1.98;;;1.48;;
23617;SDS011;18207;32.078;34.818;2023-06-14T13:19:48;1.40;;;1.30;;
23617;SDS011;18207;32.078;34.818;2023-06-14T13:22:18;1.35;;;1.20;;
23617;SDS011;18207;32.078;34.818;2023-06-14T13:24:49;1.13;;;1.13;;
23617;SDS011;18207;32.078;34.818;2023-06-14T13:27:19;1.08;;;1.08;;
23617;SDS011;18207;32.078;34.818;2023-06-14T13:29:50;1.10;;;1.10;;
23617;SDS011;18207;32.078;34.818;2023-06-14T13:32:20;1.20;;;1.20;;
23617;SDS011;18207;32.078;34.818;2023-06-14T13:34:53;1.15;;;1.15;;
23617;SDS011;18207;32.078;34.818;2023-06-14T13:37:24;1.02;;;1.02;;
23617;SDS011;18207;32.078;34.818;2023-06-14T13:39:54;1.10;;;1.10;;
23617;SDS011;18207;32.078;34.818;2023-06-14T13:42:24;1.20;;;1.10;;
23617;SDS011;18207;32.078;34.818;2023-06-14T13:44:55;1.25;;;1.17;;
23617;SDS011;18207;32.078;34.818;2023-06-14T13:47:25;1.35;;;1.35;;
23617;SDS011;18207;32.078;34.818;2023-06-14T13:49:57;1.30;;;1.30;;
23617;SDS011;18207;32.078;34.818;2023-06-14T13:52:27;1.15;;;1.15;;
23617;SDS011;18207;32.078;34.818;2023-06-14T13:54:58;1.13;;;1.13;;
23617;SDS011;18207;32.078;34.818;2023-06-14T13:57:28;1.08;;;1.08;;
23617;SDS011;18207;32.078;34.818;2023-06-14T13:59:59;1.10;;;1.10;;
23617;SDS011;18207;32.078;34.818;2023-06-14T14:02:30;1.15;;;1.13;;
23617;SDS011;18207;32.078;34.818;2023-06-14T14:05:03;1.00;;;1.00;;
23617;SDS011;18207;32.078;34.818;2023-06-14T14:07:34;1.20;;;1.20;;
23617;SDS011;18207;32.078;34.818;2023-06-14T14:10:06;1.20;;;1.20;;
23617;SDS011;18207;32.078;34.818;2023-06-14T14:12:37;1.20;;;1.10;;
23617;SDS011;18207;32.078;34.818;2023-06-14T14:15:07;1.02;;;0.98;;
23617;SDS011;18207;32.078;34.818;2023-06-14T14:17:40;1.02;;;1.02;;
23617;SDS011;18207;32.078;34.818;2023-06-14T14:20:11;1.30;;;1.20;;
23617;SDS011;18207;32.078;34.818;2023-06-14T14:22:43;1.20;;;1.20;;
23617;SDS011;18207;32.078;34.818;2023-06-14T14:25:14;1.10;;;1.10;;
23617;SDS011;18207;32.078;34.818;2023-06-14T14:27:45;1.30;;;1.30;;
23617;SDS011;18207;32.078;34.818;2023-06-14T14:30:15;1.20;;;1.20;;
23617;SDS011;18207;32.078;34.818;2023-06-14T14:32:48;1.15;;;1.10;;
23617;SDS011;18207;32.078;34.818;2023-06-14T14:35:22;1.42;;;1.42;;
23617;SDS011;18207;32.078;34.818;2023-06-14T14:37:57;1.17;;;1.17;;
23617;SDS011;18207;32.078;34.818;2023-06-14T14:40:30;1.15;;;1.15;;
23617;SDS011;18207;32.078;34.818;2023-06-14T14:43:01;1.23;;;1.23;;
23617;SDS011;18207;32.078;34.818;2023-06-14T14:45:32;1.52;;;1.50;;
23617;SDS011;18207;32.078;34.818;2023-06-14T14:48:02;1.52;;;1.42;;
23617;SDS011;18207;32.078;34.818;2023-06-14T14:50:35;1.48;;;1.42;;
23617;SDS011;18207;32.078;34.818;2023-06-14T14:53:06;1.42;;;1.33;;
23617;SDS011;18207;32.078;34.818;2023-06-14T14:55:36;1.17;;;1.17;;
23617;SDS011;18207;32.078;34.818;2023-06-14T14:58:08;1.20;;;1.20;;
23617;SDS011;18207;32.078;34.818;2023-06-14T15:00:38;1.20;;;1.20;;
23617;SDS011;18207;32.078;34.818;2023-06-14T15:03:09;1.15;;;1.15;;
23617;SDS011;18207;32.078;34.818;2023-06-14T15:05:42;1.52;;;1.42;;